createdAt,value
2022-11-10T00:00:06.823Z,9.80
2022-11-10T00:02:54.861Z,9.80
2022-11-10T00:05:42.028Z,9.80
2022-11-10T00:08:28.430Z,9.80
2022-11-10T00:11:15.343Z,9.80
2022-11-10T00:14:19.397Z,9.70
2022-11-10T00:17:05.999Z,9.70
2022-11-10T00:19:54.291Z,9.80
2022-11-10T00:22:42.405Z,9.80
2022-11-10T00:25:29.496Z,9.80
2022-11-10T00:28:16.287Z,9.70
2022-11-10T00:31:07.118Z,9.80
2022-11-10T00:33:53.902Z,9.80
2022-11-10T00:36:42.667Z,9.70
2022-11-10T00:39:29.282Z,9.70
2022-11-10T00:42:16.241Z,9.70
2022-11-10T00:45:03.248Z,9.80
2022-11-10T00:47:50.166Z,9.80
2022-11-10T00:50:37.208Z,9.80
2022-11-10T00:53:25.779Z,9.80
2022-11-10T00:56:12.382Z,9.70
2022-11-10T00:58:59.418Z,9.70
2022-11-10T01:01:46.267Z,9.70
2022-11-10T01:04:33.247Z,9.80
2022-11-10T01:07:20.445Z,9.80
2022-11-10T01:10:09.487Z,9.80
2022-11-10T01:12:56.242Z,9.80
2022-11-10T01:15:43.814Z,9.70
2022-11-10T01:18:30.473Z,9.70
2022-11-10T01:21:17.636Z,9.70
2022-11-10T01:24:04.606Z,9.70
2022-11-10T01:26:52.630Z,9.80
2022-11-10T01:29:39.410Z,9.80
2022-11-10T01:32:26.421Z,9.80
2022-11-10T01:35:13.017Z,9.80
2022-11-10T01:37:59.834Z,9.80
2022-11-10T01:40:47.021Z,9.70
2022-11-10T01:43:35.095Z,9.80
2022-11-10T01:46:21.728Z,9.80
2022-11-10T01:49:10.356Z,9.80
2022-11-10T01:52:01.265Z,9.80
2022-11-10T01:54:50.097Z,9.80
2022-11-10T01:57:37.757Z,9.80
2022-11-10T02:00:26.128Z,9.80
2022-11-10T02:03:16.510Z,9.80
2022-11-10T02:06:04.227Z,9.80
2022-11-10T02:08:52.281Z,9.90
2022-11-10T02:11:39.992Z,9.90
2022-11-10T02:14:27.072Z,9.90
2022-11-10T02:17:15.424Z,10.00
2022-11-10T02:20:04.790Z,10.00
2022-11-10T02:22:52.625Z,10.00
2022-11-10T02:25:38.988Z,10.10
2022-11-10T02:28:27.292Z,10.00
2022-11-10T02:31:14.239Z,10.00
2022-11-10T02:34:01.175Z,10.10
2022-11-10T02:36:48.155Z,10.00
2022-11-10T02:39:36.355Z,10.00
2022-11-10T02:42:23.399Z,10.00
2022-11-10T02:45:10.775Z,10.00
2022-11-10T02:47:57.669Z,10.00
2022-11-10T02:50:44.401Z,9.90
2022-11-10T02:53:31.070Z,10.00
2022-11-10T02:56:19.471Z,10.00
2022-11-10T02:59:06.525Z,10.00
2022-11-10T03:01:53.657Z,10.00
2022-11-10T03:04:40.549Z,10.00
2022-11-10T03:07:27.543Z,10.00
2022-11-10T03:10:14.674Z,10.10
2022-11-10T03:13:03.638Z,10.00
2022-11-10T03:15:50.434Z,10.10
2022-11-10T03:18:37.358Z,10.10
2022-11-10T03:21:24.349Z,10.10
2022-11-10T03:24:11.576Z,10.10
2022-11-10T03:26:58.543Z,10.10
2022-11-10T03:29:46.866Z,10.20
2022-11-10T03:32:34.392Z,10.20
2022-11-10T03:35:21.034Z,10.20
2022-11-10T03:38:07.531Z,10.30
2022-11-10T03:44:00.310Z,10.30
2022-11-10T03:46:51.538Z,10.40
2022-11-10T03:49:38.681Z,10.30
2022-11-10T03:52:25.704Z,10.40
2022-11-10T03:55:14.501Z,10.40
2022-11-10T03:58:03.203Z,10.40
2022-11-10T04:00:50.105Z,10.40
2022-11-10T04:03:38.361Z,10.50
2022-11-10T04:06:42.781Z,10.50
2022-11-10T04:09:29.498Z,10.50
2022-11-10T04:12:33.683Z,10.50
2022-11-10T04:15:37.969Z,10.50
2022-11-10T04:18:29.722Z,10.50
2022-11-10T04:21:17.926Z,10.50
2022-11-10T04:24:04.845Z,10.60
2022-11-10T04:26:51.326Z,10.60
2022-11-10T04:29:37.994Z,10.60
2022-11-10T04:32:24.817Z,10.60
2022-11-10T04:35:11.839Z,10.60
2022-11-10T04:38:01.460Z,10.60
2022-11-10T04:40:47.993Z,10.60
2022-11-10T04:43:35.404Z,10.60
2022-11-10T04:46:26.011Z,10.60
2022-11-10T04:49:13.067Z,10.60
2022-11-10T04:51:59.764Z,10.60
2022-11-10T04:54:47.898Z,10.70
2022-11-10T04:57:34.869Z,10.70
2022-11-10T05:00:21.661Z,10.70
2022-11-10T05:03:10.131Z,10.70
2022-11-10T05:05:57.085Z,10.70
2022-11-10T05:08:44.666Z,10.70
2022-11-10T05:11:32.993Z,10.70
2022-11-10T05:14:19.608Z,10.70
2022-11-10T05:17:06.207Z,10.70
2022-11-10T05:19:53.159Z,10.70
2022-11-10T05:22:39.533Z,10.70
2022-11-10T05:25:25.990Z,10.70
2022-11-10T05:28:14.415Z,10.70
2022-11-10T05:31:01.107Z,10.70
2022-11-10T05:33:47.540Z,10.70
2022-11-10T05:36:34.415Z,10.70
2022-11-10T05:39:21.301Z,10.70
2022-11-10T05:42:08.328Z,10.70
2022-11-10T05:44:56.082Z,10.70
2022-11-10T05:47:43.296Z,10.70
2022-11-10T05:50:30.125Z,10.70
2022-11-10T05:53:16.821Z,10.70
2022-11-10T05:56:03.596Z,10.70
2022-11-10T05:58:50.590Z,10.70
2022-11-10T06:01:38.352Z,10.70
2022-11-10T06:04:25.505Z,10.60
2022-11-10T06:07:12.122Z,10.60
2022-11-10T06:09:59.158Z,10.70
2022-11-10T06:12:46.701Z,10.70
2022-11-10T06:15:33.905Z,10.70
2022-11-10T06:18:21.870Z,10.70
2022-11-10T06:21:08.359Z,10.70
2022-11-10T06:23:55.188Z,10.70
2022-11-10T06:26:42.079Z,10.70
2022-11-10T06:29:29.426Z,10.70
2022-11-10T06:32:16.969Z,10.70
2022-11-10T06:35:05.259Z,10.70
2022-11-10T06:37:59.529Z,10.80
2022-11-10T06:40:45.903Z,10.80
2022-11-10T06:43:32.369Z,10.80
2022-11-10T06:46:18.784Z,10.80
2022-11-10T06:49:06.180Z,10.80
2022-11-10T06:51:54.470Z,10.80
2022-11-10T06:54:44.046Z,10.80
2022-11-10T06:57:30.649Z,10.80
2022-11-10T07:00:18.935Z,10.80
2022-11-10T07:03:07.716Z,10.80
2022-11-10T07:05:55.074Z,10.90
2022-11-10T07:08:42.971Z,10.90
2022-11-10T07:11:29.441Z,10.90
2022-11-10T07:14:16.057Z,10.90
2022-11-10T07:17:02.921Z,10.90
2022-11-10T07:19:49.711Z,10.90
2022-11-10T07:22:36.191Z,10.90
2022-11-10T07:25:24.069Z,11.00
2022-11-10T07:28:11.553Z,11.00
2022-11-10T07:30:57.866Z,11.00
2022-11-10T07:33:53.351Z,11.00
2022-11-10T07:36:41.742Z,11.10
2022-11-10T07:39:28.446Z,11.10
2022-11-10T07:42:16.133Z,11.10
2022-11-10T07:45:02.671Z,11.20
2022-11-10T07:47:50.327Z,11.20
2022-11-10T07:50:36.913Z,11.20
2022-11-10T07:53:25.241Z,11.20
2022-11-10T07:56:12.379Z,11.30
2022-11-10T07:59:00.048Z,11.30
2022-11-10T08:01:47.346Z,11.20
2022-11-10T08:04:34.148Z,11.30
2022-11-10T08:07:20.663Z,11.30
2022-11-10T08:10:09.441Z,11.40
2022-11-10T08:12:57.191Z,11.40
2022-11-10T08:15:45.486Z,11.40
2022-11-10T08:18:35.307Z,11.40
2022-11-10T08:21:22.047Z,11.40
2022-11-10T08:24:09.476Z,11.50
2022-11-10T08:26:56.964Z,11.50
2022-11-10T08:29:43.868Z,11.50
2022-11-10T08:32:32.115Z,11.40
2022-11-10T08:35:18.483Z,11.50
2022-11-10T08:38:10.086Z,11.60
2022-11-10T08:40:58.349Z,11.60
2022-11-10T08:43:44.931Z,11.60
2022-11-10T08:46:31.650Z,11.60
2022-11-10T08:49:19.516Z,11.60
2022-11-10T08:52:06.360Z,11.60
2022-11-10T08:54:53.246Z,11.70
2022-11-10T08:57:39.545Z,11.70
2022-11-10T09:00:25.721Z,11.70
2022-11-10T09:03:15.270Z,11.80
2022-11-10T09:06:03.202Z,11.80
2022-11-10T09:08:50.026Z,11.80
2022-11-10T09:11:36.910Z,11.90
2022-11-10T09:14:23.443Z,11.90
2022-11-10T09:17:09.901Z,11.90
2022-11-10T09:19:56.855Z,12.00
2022-11-10T09:22:45.466Z,12.00
2022-11-10T09:25:31.891Z,12.00
2022-11-10T09:28:19.552Z,12.00
2022-11-10T09:31:06.246Z,12.00
2022-11-10T09:33:53.162Z,12.10
2022-11-10T09:36:40.739Z,12.10
2022-11-10T09:39:28.837Z,12.10
2022-11-10T09:42:27.263Z,12.10
2022-11-10T09:45:23.743Z,12.20
2022-11-10T09:48:18.792Z,12.20
2022-11-10T09:51:09.608Z,12.20
2022-11-10T09:53:58.734Z,12.30
2022-11-10T09:56:47.196Z,12.30
2022-11-10T09:59:35.521Z,12.30
2022-11-10T10:02:28.395Z,12.40
2022-11-10T10:05:40.230Z,12.40
2022-11-10T10:08:40.310Z,12.40
2022-11-10T10:11:48.860Z,12.40
2022-11-10T10:15:04.347Z,12.40
2022-11-10T10:17:59.029Z,12.40
2022-11-10T10:20:55.675Z,12.50
2022-11-10T10:24:08.500Z,12.60
2022-11-10T10:26:56.479Z,12.60
2022-11-10T10:29:46.342Z,12.70
2022-11-10T10:32:34.431Z,12.70
2022-11-10T10:35:21.597Z,12.90
2022-11-10T10:38:17.952Z,12.90
2022-11-10T10:41:19.531Z,12.90
2022-11-10T10:44:13.266Z,12.90
2022-11-10T10:47:01.235Z,12.90
2022-11-10T10:49:49.927Z,13.00
2022-11-10T10:52:36.523Z,13.00
2022-11-10T10:55:30.195Z,13.00
2022-11-10T10:58:23.699Z,13.00
2022-11-10T11:01:25.365Z,13.20
2022-11-10T11:04:28.889Z,13.10
2022-11-10T11:07:24.223Z,13.30
2022-11-10T11:10:22.389Z,13.40
2022-11-10T11:13:21.575Z,13.50
2022-11-10T11:16:12.315Z,13.60
2022-11-10T11:18:59.097Z,13.60
2022-11-10T11:22:05.934Z,13.60
2022-11-10T11:25:02.545Z,13.60
2022-11-10T11:28:00.805Z,13.70
2022-11-10T11:30:58.863Z,13.80
2022-11-10T11:33:51.729Z,13.90
2022-11-10T11:36:46.154Z,13.90
2022-11-10T11:39:44.873Z,14.00
2022-11-10T11:42:46.507Z,14.00
2022-11-10T11:45:44.438Z,14.00
2022-11-10T11:48:43.782Z,14.00
2022-11-10T11:51:40.876Z,14.00
2022-11-10T11:54:48.075Z,14.00
2022-11-10T11:57:45.255Z,14.00
2022-11-10T12:00:43.982Z,14.10
2022-11-10T12:03:42.838Z,14.10
2022-11-10T12:06:41.637Z,14.10
2022-11-10T12:09:37.834Z,14.10
2022-11-10T12:12:56.820Z,14.20
2022-11-10T12:15:54.439Z,14.20
2022-11-10T12:18:49.822Z,14.20
2022-11-10T12:21:45.193Z,14.10
2022-11-10T12:24:52.116Z,14.20
2022-11-10T12:27:41.790Z,14.10
2022-11-10T12:30:32.351Z,14.20
2022-11-10T12:33:31.512Z,14.30
2022-11-10T12:36:21.178Z,14.30
2022-11-10T12:39:14.986Z,14.30
2022-11-10T12:42:02.989Z,14.20
2022-11-10T12:45:00.590Z,14.20
2022-11-10T12:47:52.052Z,14.20
2022-11-10T12:51:06.325Z,14.20
2022-11-10T12:57:38.812Z,14.20
2022-11-10T13:01:00.209Z,14.20
2022-11-10T13:04:41.841Z,14.20
2022-11-10T13:08:24.029Z,14.20
2022-11-10T13:11:27.500Z,14.10
2022-11-10T13:14:24.902Z,14.10
2022-11-10T13:17:47.772Z,14.10
2022-11-10T13:20:53.533Z,14.00
2022-11-10T13:24:14.244Z,14.00
2022-11-10T13:27:02.567Z,13.90
2022-11-10T13:29:58.391Z,13.90
2022-11-10T13:32:50.512Z,13.90
2022-11-10T13:40:47.480Z,13.80
2022-11-10T13:44:44.811Z,13.80
2022-11-10T13:52:39.838Z,13.80
2022-11-10T13:55:48.233Z,13.70
2022-11-10T13:58:36.736Z,13.70
2022-11-10T14:01:29.090Z,13.60
2022-11-10T14:04:41.750Z,13.60
2022-11-10T14:08:10.330Z,13.60
2022-11-10T14:11:01.249Z,13.50
2022-11-10T14:13:57.083Z,13.60
2022-11-10T14:16:50.773Z,13.60
2022-11-10T14:19:41.174Z,13.50
2022-11-10T14:22:34.510Z,13.60
2022-11-10T14:25:26.507Z,13.60
2022-11-10T14:28:30.254Z,13.50
2022-11-10T14:31:22.171Z,13.40
2022-11-10T14:34:16.699Z,13.30
2022-11-10T14:37:10.504Z,13.20
2022-11-10T14:39:59.823Z,13.20
2022-11-10T14:42:48.411Z,13.10
2022-11-10T14:45:41.221Z,13.10
2022-11-10T14:48:29.858Z,13.00
2022-11-10T14:51:19.022Z,12.90
2022-11-10T14:54:07.479Z,12.90
2022-11-10T14:56:55.878Z,12.80
2022-11-10T15:00:09.159Z,12.80
2022-11-10T15:02:59.368Z,12.70
2022-11-10T15:05:46.513Z,12.60
2022-11-10T15:08:33.833Z,12.60
2022-11-10T15:11:40.449Z,12.50
2022-11-10T15:14:40.683Z,12.40
2022-11-10T15:17:47.310Z,12.30
2022-11-10T15:20:38.331Z,12.20
2022-11-10T15:23:33.617Z,12.20
2022-11-10T15:26:59.899Z,12.20
2022-11-10T15:29:48.078Z,12.10
2022-11-10T15:32:37.134Z,12.10
2022-11-10T15:35:30.379Z,12.00
2022-11-10T15:38:30.251Z,11.90
2022-11-10T15:41:27.411Z,11.90
2022-11-10T15:44:22.320Z,11.90
2022-11-10T15:47:14.819Z,11.90
2022-11-10T15:50:02.503Z,11.90
2022-11-10T15:52:49.888Z,11.90
2022-11-10T15:55:38.900Z,11.90
2022-11-10T15:58:26.428Z,11.90
2022-11-10T16:01:14.436Z,11.80
2022-11-10T16:04:02.527Z,11.80
2022-11-10T16:06:49.806Z,11.80
2022-11-10T16:09:36.757Z,11.80
2022-11-10T16:12:25.274Z,11.80
2022-11-10T16:15:19.540Z,11.80
2022-11-10T16:18:11.714Z,11.80
2022-11-10T16:20:59.082Z,11.90
2022-11-10T16:23:49.349Z,11.90
2022-11-10T16:26:36.582Z,11.90
2022-11-10T16:29:25.106Z,11.90
2022-11-10T16:32:13.052Z,12.00
2022-11-10T16:34:59.954Z,12.00
2022-11-10T16:37:47.183Z,12.00
2022-11-10T16:40:34.034Z,12.00
2022-11-10T16:43:21.750Z,12.00
2022-11-10T16:46:19.501Z,12.00
2022-11-10T16:49:16.264Z,12.00
2022-11-10T16:52:15.920Z,12.00
2022-11-10T16:55:04.439Z,12.00
2022-11-10T16:57:50.911Z,12.00
2022-11-10T17:00:39.335Z,11.90
2022-11-10T17:03:42.294Z,11.90
2022-11-10T17:06:32.191Z,11.90
2022-11-10T17:09:32.904Z,11.90
2022-11-10T17:12:48.259Z,11.90
2022-11-10T17:15:35.541Z,11.90
2022-11-10T17:18:27.489Z,11.90
2022-11-10T17:21:16.445Z,11.90
2022-11-10T17:24:04.441Z,11.90
2022-11-10T17:26:51.601Z,11.90
2022-11-10T17:29:38.505Z,11.90
2022-11-10T17:32:50.084Z,11.90
2022-11-10T17:35:35.030Z,11.80
2022-11-10T17:38:29.555Z,11.80
2022-11-10T17:41:18.187Z,11.70
2022-11-10T17:44:05.312Z,11.70
2022-11-10T17:46:52.021Z,11.60
2022-11-10T17:49:38.579Z,11.50
2022-11-10T17:52:25.020Z,11.50
2022-11-10T17:55:19.234Z,11.40
2022-11-10T17:58:05.870Z,11.40
2022-11-10T18:00:52.218Z,11.40
2022-11-10T18:03:41.161Z,11.30
2022-11-10T18:06:27.589Z,11.20
2022-11-10T18:09:14.334Z,11.20
2022-11-10T18:12:02.697Z,11.20
2022-11-10T18:14:49.049Z,11.20
2022-11-10T18:17:35.925Z,11.20
2022-11-10T18:20:22.572Z,11.10
2022-11-10T18:23:11.607Z,11.10
2022-11-10T18:26:04.847Z,11.00
2022-11-10T18:28:52.898Z,11.00
2022-11-10T18:31:39.455Z,11.00
2022-11-10T18:34:26.588Z,11.00
2022-11-10T18:37:13.308Z,10.90
2022-11-10T18:40:00.376Z,10.90
2022-11-10T18:42:47.020Z,10.90
2022-11-10T18:45:36.265Z,10.90
2022-11-10T18:48:30.119Z,10.80
2022-11-10T18:51:21.781Z,10.80
2022-11-10T18:54:08.386Z,10.80
2022-11-10T18:56:55.421Z,10.80
2022-11-10T18:59:42.127Z,10.70
2022-11-10T19:02:29.808Z,10.70
2022-11-10T19:05:16.569Z,10.60
2022-11-10T19:08:03.462Z,10.60
2022-11-10T19:10:49.821Z,10.50
2022-11-10T19:13:37.473Z,10.50
2022-11-10T19:16:24.087Z,10.40
2022-11-10T19:19:12.764Z,10.40
2022-11-10T19:22:00.751Z,10.40
2022-11-10T19:25:07.005Z,10.40
2022-11-10T19:27:53.912Z,10.40
2022-11-10T19:30:40.825Z,10.30
2022-11-10T19:33:28.765Z,10.30
2022-11-10T19:36:18.712Z,10.20
2022-11-10T19:39:05.541Z,10.30
2022-11-10T19:41:52.435Z,10.30
2022-11-10T19:44:38.836Z,10.20
2022-11-10T19:47:25.733Z,10.30
2022-11-10T19:50:12.992Z,10.30
2022-11-10T19:53:01.162Z,10.20
2022-11-10T19:55:48.317Z,10.20
2022-11-10T19:58:39.010Z,10.10
2022-11-10T20:01:26.464Z,10.10
2022-11-10T20:04:14.949Z,10.10
2022-11-10T20:07:18.856Z,10.10
2022-11-10T20:10:08.381Z,10.10
2022-11-10T20:12:54.812Z,10.10
2022-11-10T20:15:42.939Z,10.10
2022-11-10T20:18:30.092Z,10.00
2022-11-10T20:21:20.884Z,10.00
2022-11-10T20:24:08.008Z,9.90
2022-11-10T20:26:56.137Z,9.90
2022-11-10T20:29:44.277Z,9.90
2022-11-10T20:32:31.579Z,9.90
2022-11-10T20:35:18.293Z,9.90
2022-11-10T20:38:06.409Z,9.80
2022-11-10T20:41:03.228Z,9.80
2022-11-10T20:43:51.722Z,9.80
2022-11-10T20:46:53.952Z,9.80
2022-11-10T20:49:41.525Z,9.80
2022-11-10T20:52:28.452Z,9.70
2022-11-10T20:55:18.351Z,9.70
2022-11-10T20:58:05.506Z,9.60
2022-11-10T21:00:53.518Z,9.60
2022-11-10T21:03:40.140Z,9.60
2022-11-10T21:06:26.766Z,9.60
2022-11-10T21:09:13.167Z,9.60
2022-11-10T21:12:17.119Z,9.60
2022-11-10T21:15:04.590Z,9.60
2022-11-10T21:17:52.656Z,9.60
2022-11-10T21:20:39.624Z,9.60
2022-11-10T21:23:26.700Z,9.60
2022-11-10T21:26:13.823Z,9.60
2022-11-10T21:29:00.219Z,9.50
2022-11-10T21:31:47.378Z,9.50
2022-11-10T21:34:35.777Z,9.50
2022-11-10T21:37:23.663Z,9.40
2022-11-10T21:40:11.755Z,9.40
2022-11-10T21:42:58.359Z,9.40
2022-11-10T21:45:44.774Z,9.40
2022-11-10T21:48:31.740Z,9.30
2022-11-10T21:51:21.139Z,9.40
2022-11-10T21:54:07.561Z,9.30
2022-11-10T21:56:54.353Z,9.30
2022-11-10T21:59:41.538Z,9.30
2022-11-10T22:02:28.554Z,9.30
2022-11-10T22:05:15.594Z,9.30
2022-11-10T22:08:04.893Z,9.30
2022-11-10T22:11:09.152Z,9.30
2022-11-10T22:14:12.953Z,9.30
2022-11-10T22:17:23.610Z,9.30
2022-11-10T22:20:11.060Z,9.30
2022-11-10T22:22:58.004Z,9.30
2022-11-10T22:25:46.569Z,9.30
2022-11-10T22:28:33.252Z,9.20
2022-11-10T22:31:20.107Z,9.20
2022-11-10T22:34:06.726Z,9.20
2022-11-10T22:36:55.693Z,9.20
2022-11-10T22:39:59.525Z,9.10
2022-11-10T22:43:04.991Z,9.20
2022-11-10T22:45:51.927Z,9.10
2022-11-10T22:48:39.093Z,9.20
2022-11-10T22:51:28.361Z,9.10
2022-11-10T22:54:17.322Z,9.10
2022-11-10T22:57:04.195Z,9.10
2022-11-10T22:59:52.596Z,9.10
2022-11-10T23:02:39.011Z,9.10
2022-11-10T23:05:25.426Z,9.00
2022-11-10T23:08:13.000Z,9.10
2022-11-10T23:11:01.087Z,9.00
2022-11-10T23:13:47.856Z,9.00
2022-11-10T23:16:36.532Z,9.00
2022-11-10T23:19:23.371Z,9.00
2022-11-10T23:22:09.656Z,8.90
2022-11-10T23:24:57.462Z,8.90
2022-11-10T23:27:44.207Z,8.90
2022-11-10T23:30:30.878Z,8.90
2022-11-10T23:33:18.576Z,8.90
2022-11-10T23:36:06.520Z,8.90
2022-11-10T23:38:53.028Z,8.90
2022-11-10T23:41:39.988Z,8.90
2022-11-10T23:44:26.220Z,8.90
2022-11-10T23:47:14.650Z,8.90
2022-11-10T23:50:02.540Z,8.90
2022-11-10T23:52:49.200Z,8.90
2022-11-10T23:55:36.183Z,8.90
2022-11-10T23:58:23.111Z,8.90
